Tous les Résultats et les Classements des Compétitions E.S.F.

 ESF VALBERG-BEUIL : Flèche du 06/01/2013 à 12h00  

SELECTION COQ D ARGENT-COQ DE BRONZE U10 ET U12 manche1

 Epreuve antérieure au 1er Décembre 2015, ne comptant plus pour le classement SkiOpen.

Ouvreur Handicap Temps Réalisé Temps Base
CORSO JORIS 4.00 51.67 49.68
Médaille Or Vermeil Argent Bronze Fléchette
Pourcentage 15.00% 28.00% 40.00% 50.00% 55.00%
Temps 57.13 1:03.59 1:09.55 1:14.52 1:17.00
Clt.   Identité Code S. An Cat Temps Pts Médaille
1 BARBE AURELIEN FFS2655127 M 2001 POU 54.07 8.84 Or
2 MARIN CARLA FFS2652206 F 2001 POU 54.33 9.36 Or
3 CHATTON AUDREY FFS2659773 F 2001 POU 54.63 9.96 Or
4 COLLOT JULES LCN1125314 M 2003 POU 55.61 11.94 Or
5 MILLON FLORIAN FFS2654693 M 2001 POU 55.98 12.68 Or
6 ALBERNHE LORIS FFS2641317 M 2001 POU 56.28 13.29 Or
7 MADDENS CLEMENT FFS2646810 M 2001 POU 56.35 13.43 Or
8 CIAIS CLEMENT FFS2652656 M 2002 POU 56.66 14.05 Or
8 CATIEAU VICTORIEN FFS2663102 M 2002 POU 56.66 14.05 Or
10 DE LA CHAPELLE JOSEPH FFS2654689 M 2001 POU 56.79 14.31 Or
11 HOFMAN LOUIS FFS2656926 M 2001 POU 56.94 14.61 Or
12 GUYOT NOE FFS2660305 M 2002 POU 56.99 14.71 Or
13 MANFREDI CLEMENT FFS2653417 M 2001 POU 57.68 16.10 Vermeil
14 RAJAOFERA STELLAN FFS2664972 M 2004 POU 57.74 16.22 Vermeil
15 DUCATI MATHIAS FFS2654690 M 2001 POU 57.85 16.45 Vermeil
16 SAIONI YOANN FFS2654319 M 2001 POU 58.03 16.81 Vermeil
17 CHATTON ROBIN FFS2659774 M 2001 POU 58.11 16.97 Vermeil
18 NICOLETTA ELISE FFS2654694 F 2001 POU 58.28 17.31 Vermeil
19 BAUD ADRIEN FFS2657249 M 2001 POU 58.49 17.73 Vermeil
20 VERDINO CLAUDIA FFS2652175 F 2001 POU 58.84 18.44 Vermeil
21 FALICON FOLKES ARUMLEE LCN11309813 M 2003 POU 59.35 19.46 Vermeil
22 SENNES ALEXIA FFS2660309 F 2002 POU 59.53 19.83 Vermeil
23 GORGUES FLORIAN FFS2650637 M 2002 POU 59.56 19.89 Vermeil
24 BELTRAN THOMAS FFS2654687 M 2001 POU 59.58 19.93 Vermeil
24 KOREN CELIA FFS2656381 F 2001 POU 59.58 19.93 Vermeil
26 BASTANTI GABRIEL FFS2662515 M 2001 POU 59.74 20.25 Vermeil
27 PAOLI LUCA LCN11262627 M 2003 POU 59.90 20.57 Vermeil
28 THOMAS ANDREA FFS2654696 M 2001 POU 59.97 20.71 Vermeil
29 NOEL JULES EXT-132 M 2003 POU 1:00.00 20.77 Vermeil
30 LUCCHESE MATTEO FFS2647283 M 2001 POU 1:00.11 20.99 Vermeil
31 SCHWITZER LUCAS LCN11262554 M 2003 POU 1:00.18 21.14 Vermeil
32 ODDO NOA LCN11295717 M 2004 POU 1:00.44 21.66 Vermeil
33 FRADIN MATTEO LCN11295240 M 2003 POU 1:00.48 21.74 Vermeil
34 BITTER VALENTIN FFS2651906 M 2001 POU 1:00.56 21.90 Vermeil
35 TURCO ROMAIN FFS2639405 M 2001 POU 1:00.94 22.67 Vermeil
36 CUTAJAR LUCAS FFS2658108 M 2001 POU 1:00.95 22.69 Vermeil
37 PLESSIER NICOLAS LCN11294535 M 2003 POU 1:01.04 22.87 Vermeil
38 LACLAU AXEL FFS2656774 M 2003 POU 1:01.17 23.13 Vermeil
39 PARIS MAEVA FFS2660306 F 2002 POU 1:01.25 23.29 Vermeil
40 BONNEL VIRGILE LCN2647756 M 2002 POU 1:01.48 23.75 Vermeil
41 BRUDNO BENJAMIN FFS2660301 M 2002 POU 1:01.92 24.64 Vermeil
42 ROUX LISA FFS2660308 F 2001 POU 1:02.17 25.14 Vermeil
43 POESY MARY ENZO FFS2660307 M 2002 POU 1:02.18 25.16 Vermeil
44 GARIN ROBIN FFS2659455 M 2001 POU 1:02.49 25.79 Vermeil
45 GARIN THYLANE PC11334068 F 2004 POU 1:02.77 26.35 Vermeil
46 ESPOSITO JORDAN FFS2668384 M 2003 POU 1:03.10 27.01 Vermeil
47 MAISONIAL MATHIS EXT128397777 M 0 1:03.13 27.07 Vermeil
48 MURRIS JEREMY FFS2664461 M 2001 POU 1:03.38 27.58 Vermeil
49 GENETTI GIORGIO FFS2668753 M 2002 POU 1:03.44 27.70 Vermeil
50 STENWAGA ANDREA FFS2654695 M 2001 POU 1:03.59 28.00 Vermeil
51 NARODITZKY AXEL LCN11305743 M 2003 POU 1:03.70 28.22 Argent
52 BELHACENE SAMY FFS2660300 M 2002 POU 1:03.83 28.48 Argent
53 BETTINI TOM FFS2663191 M 2002 POU 1:03.92 28.66 Argent
54 COMPORT CHIARA FFS2651947 F 2002 POU 1:04.02 28.86 Argent
54 JARDEL THOMAS ESF1116710001 M 2003 POU 1:04.02 28.86 Argent
56 MULLER VICTOR FFS2660920 M 2001 POU 1:04.12 29.07 Argent
57 LAMASA GIORGIO LCN11262561 M 2004 POU 1:04.27 29.37 Argent
58 FENOLL MATTEO FFS2660304 M 2002 POU 1:04.31 29.45 Argent
59 WAYOFF ARMAND LCN11304219 M 2003 POU 1:04.34 29.51 Argent
60 PALMERO PIERRE ANTOINE FFS2662430 M 2003 POU 1:04.49 29.81 Argent
61 VERNIN VICTOR FFS2660310 M 2002 POU 1:04.50 29.83 Argent
62 DEWAET MARGOT FFS2660299 F 2002 POU 1:04.84 30.52 Argent
63 SUCHET CLOTHILDE LCN11262556 F 2003 POU 1:04.86 30.56 Argent
64 MAZUEL LOLA LCN11262553 F 2003 POU 1:04.90 30.64 Argent
65 REY HUGO FFS2664294 M 2002 POU 1:04.97 30.78 Argent
66 ISRAEL KIMBERLY FFS2654691 F 2001 POU 1:05.37 31.58 Argent
67 NORDLUND NIKO FFS2665866 M 2001 POU 1:05.87 32.59 Argent
68 DELEUZE NICOLAS FFS2662709 M 2002 POU 1:05.92 32.69 Argent
69 MARSAN ALEXANDRE FFS2648023 M 2001 POU 1:05.94 32.73 Argent
70 NEGRI GIULIA FFS2660948 F 2001 POU 1:06.06 32.97 Argent
71 BROERSMA SWAEN FFS2657991 M 2001 POU 1:06.21 33.27 Argent
72 BALLY CESAR FFS2657418 M 2001 POU 1:06.55 33.96 Argent
73 GILLE EWAN FFS2653415 M 2002 POU 1:06.58 34.02 Argent
74 WODCZINSKI EMERIK LCN11286777 M 2004 POU 1:06.69 34.24 Argent
75 SABATIER LEOPOLD LCN11262628 M 2003 POU 1:06.75 34.36 Argent
76 MOSTEIRO CLEMENT LCN11283520 M 2003 POU 1:06.86 34.58 Argent
77 DAU FABIOLA FFS F 2004 POU 1:06.91 34.68 Argent
78 GAI THOMAS LCN11287636 M 2003 POU 1:06.94 34.74 Argent
79 CERDAN LOLITA FFS2665227 F 2003 POU 1:07.01 34.88 Argent
80 BERIL HUGO LCN11298584 M 2003 POU 1:07.23 35.33 Argent
81 PLOQUIN CHARLINE FFS2660547 F 2002 POU 1:07.45 35.77 Argent
82 TAURET BRIAND LOUIS LCN11374618 M 2003 POU 1:07.58 36.03 Argent
83 BAUDIN DORIAN LCN11262557 M 2003 POU 1:07.62 36.11 Argent
84 LECCIA LENA FFS2662174 F 2003 POU 1:07.66 36.19 Argent
85 DELOURME LILOU LCN11309838 F 2003 POU 1:07.89 36.65 Argent
86 PICCININI ENZO LCN11277786 M 2004 POU 1:08.03 36.94 Argent
87 BRASSEUR SOPHIE FFS2652281 F 2002 POU 1:08.26 37.40 Argent
88 STENWAGA SOPHIA LCN11262555 F 2003 POU 1:08.32 37.52 Argent
89 ASTRAUDO ELISA FFS2665228 F 2003 POU 1:08.64 38.16 Argent
90 KOHLHUBER FLORIAN FFS2653411 M 2001 POU 1:08.89 38.67 Argent
91 BOSON ALICE FFS2656388 F 2001 POU 1:08.99 38.87 Argent
92 MILLON TOM LCN11262562 M 2004 POU 1:09.14 39.17 Argent
93 BRUN LUNA FFS2663403 F 2002 POU 1:09.42 39.73 Argent
94 ALBERT VINCENT FFS2663415 M 2002 POU 1:09.61 40.12 Bronze
95 POESY MARY ZOE LCN11262563 F 2004 POU 1:10.16 41.22 Bronze
96 PRUD HOMME MARIE LCN11312556 F 2003 POU 1:10.18 41.26 Bronze
97 PEYTHIEU THOMAS EXT128397776 M 0 1:10.25 41.40 Bronze
98 BITTER JADE LCN11294937 F 2004 POU 1:10.88 42.67 Bronze
99 MOSTEIRO PAULINE FFS2665279 F 2001 POU 1:11.18 43.28 Bronze
100 CHRISSOKERAKIS CLARA FFS2664645 F 2002 POU 1:11.74 44.40 Bronze
101 LEVRAY BRIAC FFS2662597 M 2002 POU 1:11.91 44.75 Bronze
102 BEHE TIMEO FFS2659237 M 2002 POU 1:12.20 45.33 Bronze
103 VAN EVERDINGEN DYLAN LCN11342763 M 2004 POU 1:12.96 46.86 Bronze
104 DELOURME LLUNA LCN11381476 F 2003 POU 1:13.31 47.56 Bronze
105 HEILMANN ENOLA FFS2667021 F 2003 POU 1:13.57 48.09 Bronze
106 GAGGIOLI AMELIA LCN11220959 F 2004 POU 1:14.40 49.76 Bronze
107 JANER LEO FFS2660523 M 2002 POU 1:14.44 49.84 Bronze
108 GIULIAN THOMAS FFS2667018 M 2003 POU 1:15.90 52.78 Fléchette
109 CECCHINI PABLO FFS2663496 M 2002 POU 1:16.94 54.87 Fléchette
110 ETESSE NICOLAS LCN11303887 M 2003 POU 1:17.75 56.50
111 SANTONI MARGOT FFS2667020 F 2002 POU 1:17.76 56.52
112 TEISSEIRE LOU LCN11313748 F 2004 POU 1:18.26 57.53
113 COSSO HOEDT NICOLAS FFS2667375 M 2002 POU 1:21.01 63.06
114 POLCHI NORICK FFS2664974 M 2004 POU 1:26.20 73.51
115 DE LA CHAPELLE HECTOR LCN11262559 M 2003 POU 1:27.25 75.62
116 MEREU LEO LCNPC11384635 M 2004 POU 1:31.66 84.50
117 VINCENT EMMA FFS2666405 F 2003 POU 1:38.99 99.26
RADET Diane LCN11361717 F 2003 POU ABD
CAVALERA MARTIN FFS2654448 M 2001 POU ABD
ESPECHE MATHILDE FFS2651615 F 2002 POU ABD
FULCONIS EDGAR FFS2668057 M 2004 POU ABD
GREYER MATTHIAS FFS2663495 M 2002 POU ABD
BLETRY JULIEN FFS2654347 M 2001 POU ABD
MERAT Louca FFS2669053 M 2002 POU ABD
GEFFROY JULIEN LCN11295041 M 2004 POU ABD
DELAUNAY ALICE FFS2663924 F 2001 POU ABS
BERTINCOURT ELI FFS2639933 M 2001 POU ABS
DELAUNAY LOUISE FFS2663925 F 2001 POU ABS
BRUN MAEL FFS2667977 M 2004 POU ABS
FIORUCCI GASPARD FFS2652672 M 2003 POU ABS
HALLIFAX MARIE LCN11322008 F 2003 POU ABS
ROBION THOMAS FFS2663984 M 2004 POU ABS